createdAt,value
2018-09-03T00:01:48.001Z,75.62
2018-09-03T00:04:16.489Z,76.36
2018-09-03T00:06:45.017Z,76.48
2018-09-03T00:09:13.548Z,76.37
2018-09-03T00:11:42.009Z,76.35
2018-09-03T00:14:10.481Z,76.47
2018-09-03T00:16:38.945Z,76.30
2018-09-03T00:19:07.529Z,75.88
2018-09-03T00:21:36.052Z,76.05
2018-09-03T00:24:04.522Z,75.67
2018-09-03T00:26:33.070Z,76.18
2018-09-03T00:29:01.637Z,76.38
2018-09-03T00:31:35.624Z,76.36
2018-09-03T00:34:09.473Z,75.82
2018-09-03T00:36:43.101Z,75.59
2018-09-03T00:40:20.581Z,76.26
2018-09-03T00:42:54.349Z,76.02
2018-09-03T00:45:27.938Z,75.96
2018-09-03T00:47:56.466Z,76.47
2018-09-03T00:50:24.994Z,76.03
2018-09-03T00:52:53.513Z,76.38
2018-09-03T00:55:22.070Z,77.52
2018-09-03T00:57:50.576Z,77.54
2018-09-03T01:00:19.065Z,77.03
2018-09-03T01:02:47.945Z,78.23
2018-09-03T01:05:16.425Z,78.37
2018-09-03T01:07:44.924Z,78.42
2018-09-03T01:10:13.446Z,79.24
2018-09-03T01:12:41.985Z,79.49
2018-09-03T01:15:10.490Z,78.97
2018-09-03T01:17:38.993Z,78.84
2018-09-03T01:20:07.631Z,78.83
2018-09-03T01:22:36.256Z,79.22
2018-09-03T01:25:04.781Z,78.96
2018-09-03T01:27:33.249Z,78.84
2018-09-03T01:30:01.800Z,79.62
2018-09-03T01:32:30.329Z,79.39
2018-09-03T01:34:58.837Z,78.66
2018-09-03T01:37:27.357Z,79.12
2018-09-03T01:39:56.096Z,78.54
2018-09-03T01:42:24.713Z,78.09
2018-09-03T01:44:53.190Z,78.10
2018-09-03T01:47:21.665Z,78.24
2018-09-03T01:49:50.261Z,78.14
2018-09-03T01:52:19.176Z,77.19
2018-09-03T01:54:47.656Z,77.18
2018-09-03T01:57:16.137Z,76.87
2018-09-03T01:59:44.650Z,77.84
2018-09-03T02:02:13.164Z,76.87
2018-09-03T02:04:41.716Z,77.54
2018-09-03T02:07:10.214Z,77.26
2018-09-03T02:09:38.666Z,78.27
2018-09-03T02:12:11.532Z,78.04
2018-09-03T02:14:40.579Z,77.69
2018-09-03T02:17:09.970Z,77.53
2018-09-03T02:19:38.575Z,77.76
2018-09-03T02:22:07.475Z,77.44
2018-09-03T02:24:36.237Z,77.74
2018-09-03T02:27:04.758Z,77.61
2018-09-03T02:29:33.299Z,78.09
2018-09-03T02:32:02.144Z,77.84
2018-09-03T02:34:30.644Z,78.10
2018-09-03T02:36:59.162Z,77.76
2018-09-03T02:39:27.671Z,77.81
2018-09-03T02:41:56.342Z,78.07
2018-09-03T02:44:24.865Z,77.76
2018-09-03T02:46:53.351Z,78.42
2018-09-03T02:49:21.854Z,78.43
2018-09-03T02:51:50.440Z,78.24
2018-09-03T02:54:18.925Z,78.05
2018-09-03T02:56:47.473Z,78.89
2018-09-03T02:59:15.974Z,78.81
2018-09-03T03:01:44.538Z,79.18
2018-09-03T03:04:13.170Z,79.23
2018-09-03T03:06:41.850Z,78.64
2018-09-03T03:09:10.529Z,78.66
2018-09-03T03:11:39.735Z,78.62
2018-09-03T03:14:08.352Z,79.20
2018-09-03T03:16:36.870Z,79.00
2018-09-03T03:19:05.570Z,79.57
2018-09-03T03:21:34.191Z,79.70
2018-09-03T03:24:02.697Z,79.49
2018-09-03T03:26:31.278Z,80.02
2018-09-03T03:28:59.854Z,80.02
2018-09-03T03:31:28.458Z,79.58
2018-09-03T03:33:57.116Z,79.71
2018-09-03T03:36:25.777Z,80.35
2018-09-03T03:38:54.422Z,80.03
2018-09-03T03:41:22.961Z,80.02
2018-09-03T03:43:51.428Z,79.84
2018-09-03T03:46:19.969Z,80.19
2018-09-03T03:48:48.474Z,80.73
2018-09-03T03:51:17.384Z,80.87
2018-09-03T03:53:45.954Z,80.50
2018-09-03T03:56:14.413Z,80.80
2018-09-03T03:58:42.950Z,80.22
2018-09-03T04:01:11.454Z,80.32
2018-09-03T04:03:39.940Z,81.36
2018-09-03T04:06:08.757Z,80.65
2018-09-03T04:08:37.266Z,81.12
2018-09-03T04:11:06.613Z,81.10
2018-09-03T04:13:35.154Z,80.89
2018-09-03T04:16:03.671Z,81.63
2018-09-03T04:18:32.161Z,81.93
2018-09-03T04:21:00.694Z,82.20
2018-09-03T04:23:29.437Z,82.02
2018-09-03T04:25:57.797Z,82.14
2018-09-03T04:28:26.301Z,82.76
2018-09-03T04:30:54.786Z,83.38
2018-09-03T04:33:23.521Z,83.49
2018-09-03T04:35:52.122Z,83.67
2018-09-03T04:38:21.042Z,83.63
2018-09-03T04:40:49.560Z,83.89
2018-09-03T04:43:18.095Z,83.33
2018-09-03T04:45:46.586Z,83.14
2018-09-03T04:48:15.121Z,83.91
2018-09-03T04:50:43.636Z,83.78
2018-09-03T04:53:12.207Z,83.47
2018-09-03T04:55:40.763Z,82.92
2018-09-03T04:58:09.250Z,83.50
2018-09-03T05:00:37.807Z,82.88
2018-09-03T05:03:06.445Z,82.85
2018-09-03T05:05:35.062Z,82.61
2018-09-03T05:08:03.635Z,82.43
2018-09-03T05:10:32.933Z,82.52
2018-09-03T05:13:01.492Z,82.53
2018-09-03T05:15:30.086Z,83.32
2018-09-03T05:17:58.953Z,82.09
2018-09-03T05:20:27.547Z,82.98
2018-09-03T05:22:56.811Z,82.04
2018-09-03T05:25:25.374Z,82.71
2018-09-03T05:27:53.888Z,82.32
2018-09-03T05:30:22.397Z,82.24
2018-09-03T05:32:50.913Z,81.77
2018-09-03T05:35:19.486Z,81.55
2018-09-03T05:37:48.005Z,81.73
2018-09-03T05:40:16.489Z,81.65
2018-09-03T05:42:45.404Z,81.19
2018-09-03T05:45:13.868Z,80.88
2018-09-03T05:47:42.430Z,80.62
2018-09-03T05:50:11.422Z,80.95
2018-09-03T05:52:39.906Z,81.52
2018-09-03T05:55:08.431Z,82.02
2018-09-03T05:57:36.980Z,81.33
2018-09-03T06:00:06.402Z,81.35
2018-09-03T06:02:34.902Z,81.43
2018-09-03T06:05:03.438Z,81.40
2018-09-03T06:07:40.062Z,81.47
2018-09-03T06:10:08.584Z,80.86
2018-09-03T06:12:37.279Z,81.17
2018-09-03T06:15:06.026Z,80.66
2018-09-03T06:17:34.557Z,81.00
2018-09-03T06:20:03.051Z,80.30
2018-09-03T06:22:31.565Z,80.78
2018-09-03T06:25:00.044Z,80.70
2018-09-03T06:27:28.555Z,80.46
2018-09-03T06:29:57.100Z,79.77
2018-09-03T06:32:25.823Z,79.68
2018-09-03T06:34:54.661Z,79.72
2018-09-03T06:37:24.042Z,80.73
2018-09-03T06:39:52.573Z,80.45
2018-09-03T06:42:21.219Z,79.70
2018-09-03T06:44:49.784Z,79.63
2018-09-03T06:47:18.330Z,80.02
2018-09-03T06:49:46.923Z,79.50
2018-09-03T06:52:15.452Z,78.45
2018-09-03T06:54:44.081Z,78.89
2018-09-03T06:57:12.565Z,79.43
2018-09-03T06:59:41.132Z,79.31
2018-09-03T07:02:09.692Z,78.57
2018-09-03T07:04:38.197Z,78.39
2018-09-03T07:07:07.198Z,77.95
2018-09-03T07:09:35.794Z,78.01
2018-09-03T07:12:04.322Z,78.01
2018-09-03T07:14:32.854Z,78.39
2018-09-03T07:17:01.402Z,78.53
2018-09-03T07:19:29.887Z,78.76
2018-09-03T07:21:58.443Z,79.09
2018-09-03T07:24:26.933Z,78.29
2018-09-03T07:26:55.558Z,79.34
2018-09-03T07:29:24.105Z,78.54
2018-09-03T07:31:52.594Z,77.99
2018-09-03T07:34:22.037Z,77.65
2018-09-03T07:36:50.580Z,78.50
2018-09-03T07:39:19.078Z,78.30
2018-09-03T07:41:47.600Z,78.31
2018-09-03T07:44:16.127Z,76.65
2018-09-03T07:46:44.634Z,74.67
2018-09-03T07:49:13.703Z,73.19
2018-09-03T07:51:42.206Z,74.08
2018-09-03T07:54:10.692Z,73.81
2018-09-03T07:56:39.289Z,73.72
2018-09-03T07:59:07.761Z,73.32
2018-09-03T08:01:36.277Z,73.67
2018-09-03T08:04:04.819Z,74.47
2018-09-03T08:06:33.489Z,74.52
2018-09-03T08:09:02.246Z,75.22
2018-09-03T08:11:30.755Z,75.08
2018-09-03T08:13:59.284Z,75.36
2018-09-03T08:16:27.833Z,75.13
2018-09-03T08:18:56.446Z,74.27
2018-09-03T08:21:24.933Z,74.72
2018-09-03T08:23:53.522Z,75.03
2018-09-03T08:26:22.051Z,74.78
2018-09-03T08:28:50.549Z,75.00
2018-09-03T08:31:19.095Z,73.94
2018-09-03T08:33:47.579Z,72.82
2018-09-03T08:36:16.112Z,72.75
2018-09-03T08:38:44.803Z,73.91
2018-09-03T08:41:13.313Z,74.62
2018-09-03T08:43:41.865Z,76.44
2018-09-03T08:46:10.424Z,75.61
2018-09-03T08:48:38.921Z,75.52
2018-09-03T08:51:07.454Z,75.53
2018-09-03T08:53:36.316Z,74.35
2018-09-03T08:56:04.958Z,75.04
2018-09-03T08:58:33.486Z,72.85
2018-09-03T09:01:02.083Z,70.99
2018-09-03T09:03:35.938Z,69.72
2018-09-03T09:06:04.654Z,70.39
2018-09-03T09:08:33.150Z,71.28
2018-09-03T09:11:01.634Z,71.13
2018-09-03T09:13:30.545Z,71.30
2018-09-03T09:15:59.123Z,71.38
2018-09-03T09:18:27.645Z,71.29
2018-09-03T09:20:56.150Z,71.06
2018-09-03T09:23:24.694Z,70.60
2018-09-03T09:25:53.209Z,70.00
2018-09-03T09:28:21.789Z,69.67
2018-09-03T09:30:50.394Z,69.51
2018-09-03T09:33:18.926Z,68.78
2018-09-03T09:35:47.465Z,68.73
2018-09-03T09:38:15.973Z,67.02
2018-09-03T09:40:44.478Z,68.15
2018-09-03T09:43:13.041Z,69.83
2018-09-03T09:45:41.922Z,67.47
2018-09-03T09:48:10.464Z,67.94
2018-09-03T09:50:39.129Z,66.80
2018-09-03T09:53:07.698Z,66.09
2018-09-03T09:55:36.246Z,65.98
2018-09-03T09:58:04.799Z,64.87
2018-09-03T10:00:38.474Z,66.32
2018-09-03T10:03:07.046Z,67.31
2018-09-03T10:05:35.574Z,65.79
2018-09-03T10:08:04.131Z,65.32
2018-09-03T10:10:32.700Z,63.95
2018-09-03T10:13:01.193Z,64.56
2018-09-03T10:15:29.718Z,63.36
2018-09-03T10:17:58.211Z,64.57
2018-09-03T10:20:26.701Z,62.04
2018-09-03T10:22:55.237Z,64.32
2018-09-03T10:25:23.904Z,64.55
2018-09-03T10:27:52.429Z,63.20
2018-09-03T10:30:21.003Z,62.85
2018-09-03T10:32:49.585Z,64.48
2018-09-03T10:35:19.296Z,66.35
2018-09-03T10:37:47.808Z,66.06
2018-09-03T10:40:16.494Z,65.21
2018-09-03T10:42:44.983Z,64.34
2018-09-03T10:45:13.549Z,64.06
2018-09-03T10:47:42.140Z,63.81
2018-09-03T10:50:10.587Z,64.52
2018-09-03T10:52:39.102Z,64.03
2018-09-03T10:55:08.233Z,65.15
2018-09-03T10:57:36.813Z,63.97
2018-09-03T11:00:05.852Z,63.76
2018-09-03T11:02:34.728Z,63.05
2018-09-03T11:05:03.321Z,62.88
2018-09-03T11:07:31.860Z,62.62
2018-09-03T11:10:00.359Z,63.03
2018-09-03T11:12:28.927Z,61.15
2018-09-03T11:14:57.430Z,61.18
2018-09-03T11:17:26.036Z,61.02
2018-09-03T11:19:57.835Z,60.00
2018-09-03T11:22:27.391Z,59.61
2018-09-03T11:24:56.117Z,58.81
2018-09-03T11:27:24.655Z,59.41
2018-09-03T11:29:53.543Z,60.01
2018-09-03T11:32:22.091Z,59.72
2018-09-03T11:34:50.611Z,58.82
2018-09-03T11:37:19.487Z,60.24
2018-09-03T11:39:48.014Z,58.72
2018-09-03T11:42:16.493Z,57.71
2018-09-03T11:44:45.046Z,58.36
2018-09-03T11:47:13.593Z,57.11
2018-09-03T11:49:42.163Z,57.64
2018-09-03T11:52:10.666Z,55.70
2018-09-03T11:54:40.171Z,55.76
2018-09-03T11:57:08.739Z,56.71
2018-09-03T11:59:37.225Z,55.11
2018-09-03T12:02:06.546Z,54.65
2018-09-03T12:04:35.063Z,55.60
2018-09-03T12:07:03.634Z,55.38
2018-09-03T12:09:32.236Z,55.88
2018-09-03T12:12:00.732Z,54.31
2018-09-03T12:14:31.678Z,54.11
2018-09-03T12:17:00.539Z,53.51
2018-09-03T12:19:29.437Z,53.38
2018-09-03T12:21:57.941Z,53.62
2018-09-03T12:24:26.434Z,53.37
2018-09-03T12:26:54.953Z,52.82
2018-09-03T12:29:23.488Z,55.32
2018-09-03T12:31:52.119Z,55.92
2018-09-03T12:34:20.640Z,56.16
2018-09-03T12:36:49.189Z,56.30
2018-09-03T12:39:17.872Z,55.98
2018-09-03T12:41:46.497Z,55.87
2018-09-03T12:44:15.062Z,55.12
2018-09-03T12:46:43.716Z,54.63
2018-09-03T12:49:12.252Z,54.80
2018-09-03T12:51:40.910Z,54.31
2018-09-03T12:54:09.463Z,54.84
2018-09-03T12:56:37.999Z,54.61
2018-09-03T12:59:06.603Z,54.31
2018-09-03T13:01:35.291Z,54.15
2018-09-03T13:04:03.934Z,53.76
2018-09-03T13:06:32.802Z,54.32
2018-09-03T13:09:01.323Z,53.50
2018-09-03T13:11:29.829Z,53.27
2018-09-03T13:13:58.347Z,53.27
2018-09-03T13:16:26.927Z,53.51
2018-09-03T13:18:55.506Z,52.17
2018-09-03T13:21:24.026Z,52.93
2018-09-03T13:23:52.670Z,52.66
2018-09-03T13:26:21.226Z,55.26
2018-09-03T13:28:49.749Z,56.68
2018-09-03T13:31:18.310Z,55.79
2018-09-03T13:33:46.970Z,56.15
2018-09-03T13:36:15.572Z,57.66
2018-09-03T13:38:44.025Z,56.56
2018-09-03T13:41:12.583Z,57.24
2018-09-03T13:43:41.106Z,55.18
2018-09-03T13:46:09.700Z,55.99
2018-09-03T13:48:38.329Z,54.76
2018-09-03T13:51:06.480Z,54.06
2018-09-03T13:53:35.065Z,54.58
2018-09-03T13:56:03.596Z,55.07
2018-09-03T13:58:32.117Z,53.87
2018-09-03T14:01:00.735Z,53.22
2018-09-03T14:03:29.244Z,54.74
2018-09-03T14:05:58.223Z,53.40
2018-09-03T14:08:26.709Z,51.82
2018-09-03T14:10:55.232Z,50.89
2018-09-03T14:13:23.819Z,51.84
2018-09-03T14:15:52.375Z,51.89
2018-09-03T14:18:20.937Z,52.75
2018-09-03T14:20:49.589Z,53.30
2018-09-03T14:23:18.186Z,54.29
2018-09-03T14:25:46.685Z,54.58
2018-09-03T14:28:15.781Z,53.42
2018-09-03T14:30:44.398Z,52.53
2018-09-03T14:33:13.190Z,50.94
2018-09-03T14:35:41.690Z,51.47
2018-09-03T14:38:10.210Z,52.03
2018-09-03T14:40:38.805Z,53.41
2018-09-03T14:43:07.861Z,51.74
2018-09-03T14:45:36.389Z,52.00
2018-09-03T14:48:05.071Z,51.07
2018-09-03T14:50:33.611Z,50.81
2018-09-03T14:53:02.139Z,51.22
2018-09-03T14:55:30.671Z,51.11
2018-09-03T14:57:59.231Z,50.48
2018-09-03T15:00:28.186Z,50.91
2018-09-03T15:02:57.364Z,50.95
2018-09-03T15:05:25.893Z,50.50
2018-09-03T15:07:54.502Z,50.71
2018-09-03T15:10:23.659Z,50.52
2018-09-03T15:12:52.616Z,50.15
2018-09-03T15:15:21.150Z,50.25
2018-09-03T15:17:49.644Z,50.94
2018-09-03T15:20:18.174Z,51.42
2018-09-03T15:22:47.489Z,50.18
2018-09-03T15:25:16.027Z,51.54
2018-09-03T15:27:44.560Z,51.49
2018-09-03T15:30:13.173Z,50.80
2018-09-03T15:32:41.759Z,51.19
2018-09-03T15:35:10.352Z,51.31
2018-09-03T15:37:39.805Z,51.07
2018-09-03T15:40:08.347Z,49.82
2018-09-03T15:42:36.894Z,51.27
2018-09-03T15:45:05.520Z,50.92
2018-09-03T15:47:34.507Z,51.25
2018-09-03T15:50:03.027Z,51.86
2018-09-03T15:52:31.568Z,52.20
2018-09-03T15:55:00.938Z,53.00
2018-09-03T15:57:29.490Z,52.89
2018-09-03T15:59:58.397Z,53.06
2018-09-03T16:02:26.926Z,53.01
2018-09-03T16:04:55.459Z,53.74
2018-09-03T16:07:24.010Z,53.50
2018-09-03T16:09:52.542Z,52.19
2018-09-03T16:12:21.107Z,51.83
2018-09-03T16:14:49.604Z,51.39
2018-09-03T16:17:18.196Z,51.29
2018-09-03T16:19:46.715Z,50.83
2018-09-03T16:22:15.268Z,52.01
2018-09-03T16:24:43.839Z,51.65
2018-09-03T16:27:12.452Z,51.90
2018-09-03T16:29:40.959Z,51.27
2018-09-03T16:32:09.831Z,52.18
2018-09-03T16:34:38.594Z,51.64
2018-09-03T16:37:07.353Z,52.32
2018-09-03T16:39:35.922Z,53.60
2018-09-03T16:42:04.532Z,52.69
2018-09-03T16:44:33.168Z,53.13
2018-09-03T16:47:01.707Z,53.83
2018-09-03T16:49:30.258Z,52.79
2018-09-03T16:51:58.821Z,54.23
2018-09-03T16:54:27.377Z,54.10
2018-09-03T16:56:55.882Z,54.45
2018-09-03T16:59:24.489Z,54.73
2018-09-03T17:01:52.990Z,53.95
2018-09-03T17:04:21.571Z,54.53
2018-09-03T17:06:50.124Z,54.60
2018-09-03T17:09:18.707Z,53.91
2018-09-03T17:11:47.199Z,54.68
2018-09-03T17:14:15.763Z,55.58
2018-09-03T17:16:44.435Z,56.61
2018-09-03T17:19:13.041Z,55.94
2018-09-03T17:21:41.522Z,56.85
2018-09-03T17:24:10.089Z,56.33
2018-09-03T17:26:38.656Z,57.06
2018-09-03T17:29:07.227Z,57.13
2018-09-03T17:31:35.711Z,57.35
2018-09-03T17:34:04.216Z,57.66
2018-09-03T17:36:32.776Z,58.12
2018-09-03T17:39:01.346Z,58.94
2018-09-03T17:41:29.867Z,59.25
2018-09-03T17:43:58.395Z,58.97
2018-09-03T17:46:26.889Z,59.37
2018-09-03T17:48:55.450Z,60.36
2018-09-03T17:51:23.943Z,62.35
2018-09-03T17:53:52.511Z,64.16
2018-09-03T17:56:21.023Z,65.13
2018-09-03T17:58:49.574Z,65.63
2018-09-03T18:01:18.457Z,65.90
2018-09-03T18:03:47.032Z,67.05
2018-09-03T18:06:15.625Z,66.97
2018-09-03T18:08:44.302Z,67.79
2018-09-03T18:11:12.851Z,67.31
2018-09-03T18:13:41.345Z,67.78
2018-09-03T18:16:09.895Z,68.40
2018-09-03T18:18:38.505Z,68.06
2018-09-03T18:21:07.058Z,69.14
2018-09-03T18:26:03.265Z,68.77
2018-09-03T18:28:31.758Z,69.99
2018-09-03T18:31:00.283Z,70.47
2018-09-03T18:33:28.835Z,70.34
2018-09-03T18:35:57.408Z,71.12
2018-09-03T18:38:25.914Z,71.20
2018-09-03T18:40:54.404Z,70.47
2018-09-03T18:43:23.011Z,70.29
2018-09-03T18:45:51.608Z,70.90
2018-09-03T18:48:20.151Z,71.33
2018-09-03T18:50:48.630Z,71.52
2018-09-03T18:53:17.146Z,71.44
2018-09-03T18:55:45.698Z,71.95
2018-09-03T18:58:14.245Z,71.91
2018-09-03T19:00:42.848Z,71.33
2018-09-03T19:03:11.375Z,72.06
2018-09-03T19:05:39.946Z,71.32
2018-09-03T19:08:08.451Z,72.01
2018-09-03T19:10:36.961Z,71.57
2018-09-03T19:13:05.475Z,72.44
2018-09-03T19:15:33.998Z,71.70
2018-09-03T19:18:02.561Z,72.44
2018-09-03T19:20:31.045Z,73.34
2018-09-03T19:22:59.583Z,73.42
2018-09-03T19:25:28.162Z,73.48
2018-09-03T19:27:56.642Z,74.68
2018-09-03T19:30:25.183Z,73.80
2018-09-03T19:32:53.743Z,74.68
2018-09-03T19:35:22.717Z,74.26
2018-09-03T19:37:51.250Z,74.16
2018-09-03T19:40:19.776Z,74.83
2018-09-03T19:42:48.297Z,74.55
2018-09-03T19:45:16.842Z,74.52
2018-09-03T19:47:45.342Z,74.09
2018-09-03T19:50:13.934Z,73.94
2018-09-03T19:52:42.795Z,74.37
2018-09-03T19:55:11.286Z,74.78
2018-09-03T19:57:39.749Z,74.65
2018-09-03T20:00:08.297Z,75.23
2018-09-03T20:02:36.812Z,75.60
2018-09-03T20:05:05.349Z,74.28
2018-09-03T20:07:33.934Z,74.12
2018-09-03T20:10:02.475Z,74.00
2018-09-03T20:12:31.362Z,73.83
2018-09-03T20:14:59.909Z,74.03
2018-09-03T20:17:28.410Z,74.20
2018-09-03T20:19:57.018Z,73.98
2018-09-03T20:22:25.545Z,74.19
2018-09-03T20:24:54.138Z,73.86
2018-09-03T20:27:22.641Z,73.46
2018-09-03T20:29:51.177Z,74.35
2018-09-03T20:32:19.685Z,74.91
2018-09-03T20:34:48.194Z,75.18
2018-09-03T20:37:17.058Z,75.19
2018-09-03T20:39:45.563Z,75.91
2018-09-03T20:42:14.090Z,75.58
2018-09-03T20:44:42.708Z,75.79
2018-09-03T20:47:11.147Z,76.17
2018-09-03T20:49:39.756Z,76.65
2018-09-03T20:52:08.254Z,76.63
2018-09-03T20:54:36.793Z,76.21
2018-09-03T20:57:05.362Z,77.09
2018-09-03T20:59:34.247Z,77.43
2018-09-03T21:02:02.771Z,78.40
2018-09-03T21:04:31.350Z,78.14
2018-09-03T21:06:59.958Z,79.36
2018-09-03T21:09:28.629Z,79.53
2018-09-03T21:11:57.190Z,80.11
2018-09-03T21:14:25.708Z,79.81
2018-09-03T21:16:54.251Z,80.85
2018-09-03T21:19:22.770Z,81.25
2018-09-03T21:21:51.356Z,81.62
2018-09-03T21:24:20.633Z,81.74
2018-09-03T21:26:49.133Z,81.36
2018-09-03T21:29:17.742Z,82.31
2018-09-03T21:31:46.275Z,82.27
2018-09-03T21:34:14.789Z,81.92
2018-09-03T21:36:43.463Z,82.18
2018-09-03T21:39:12.122Z,81.90
2018-09-03T21:41:40.622Z,82.09
2018-09-03T21:44:09.102Z,81.03
2018-09-03T21:46:37.685Z,81.68
2018-09-03T21:49:06.248Z,81.68
2018-09-03T21:51:34.750Z,81.26
2018-09-03T21:54:03.269Z,81.57
2018-09-03T21:56:31.753Z,81.94
2018-09-03T21:59:00.335Z,81.27
2018-09-03T22:01:28.842Z,82.45
2018-09-03T22:03:57.406Z,82.25
2018-09-03T22:06:25.930Z,82.32
2018-09-03T22:08:54.454Z,82.39
2018-09-03T22:11:23.331Z,83.20
2018-09-03T22:13:51.825Z,82.37
2018-09-03T22:16:20.376Z,82.49
2018-09-03T22:18:48.925Z,82.42
2018-09-03T22:21:17.458Z,83.12
2018-09-03T22:23:46.518Z,83.04
2018-09-03T22:26:15.137Z,82.44
2018-09-03T22:28:43.653Z,82.12
2018-09-03T22:31:12.613Z,82.16
2018-09-03T22:33:41.200Z,82.89
2018-09-03T22:36:09.689Z,82.51
2018-09-03T22:38:38.234Z,83.34
2018-09-03T22:41:07.206Z,82.63
2018-09-03T22:43:35.787Z,83.03
2018-09-03T22:46:04.350Z,83.00
2018-09-03T22:48:32.857Z,82.35
2018-09-03T22:51:01.362Z,82.11
2018-09-03T22:53:29.989Z,82.80
2018-09-03T22:55:58.502Z,82.76
2018-09-03T22:58:27.037Z,82.64
2018-09-03T23:00:56.488Z,82.85
2018-09-03T23:03:24.989Z,82.98
2018-09-03T23:05:53.498Z,82.96
2018-09-03T23:08:22.018Z,83.11
2018-09-03T23:10:50.535Z,84.45
2018-09-03T23:13:19.057Z,84.02
2018-09-03T23:15:52.175Z,84.34
2018-09-03T23:18:21.750Z,84.66
2018-09-03T23:20:50.240Z,84.22
2018-09-03T23:23:18.838Z,84.64
2018-09-03T23:25:47.843Z,84.41
2018-09-03T23:28:16.413Z,85.30
2018-09-03T23:30:45.006Z,85.58
2018-09-03T23:33:13.518Z,85.53
2018-09-03T23:35:41.965Z,85.61
2018-09-03T23:38:10.457Z,86.62
2018-09-03T23:40:38.993Z,85.76
2018-09-03T23:43:07.537Z,86.08
2018-09-03T23:45:36.066Z,85.31
2018-09-03T23:48:04.676Z,86.20
2018-09-03T23:50:33.172Z,86.43
2018-09-03T23:53:01.745Z,86.31
2018-09-03T23:55:30.256Z,86.40
2018-09-03T23:57:58.765Z,86.77
